sensor_id;sensor_type;location;lat;lon;timestamp;P1;durP1;ratioP1;P2;durP2;ratioP2
45065;SDS011;30830;53.704;10.004;2023-04-01T00:00:46;9.52;;;4.10;;
45065;SDS011;30830;53.704;10.004;2023-04-01T00:03:12;6.82;;;4.38;;
45065;SDS011;30830;53.704;10.004;2023-04-01T00:05:38;9.32;;;4.45;;
45065;SDS011;30830;53.704;10.004;2023-04-01T00:08:03;6.97;;;3.95;;
45065;SDS011;30830;53.704;10.004;2023-04-01T00:10:29;5.13;;;4.28;;
45065;SDS011;30830;53.704;10.004;2023-04-01T00:12:55;6.65;;;4.15;;
45065;SDS011;30830;53.704;10.004;2023-04-01T00:15:21;5.38;;;4.55;;
45065;SDS011;30830;53.704;10.004;2023-04-01T00:17:46;5.57;;;4.38;;
45065;SDS011;30830;53.704;10.004;2023-04-01T00:20:12;9.68;;;4.68;;
45065;SDS011;30830;53.704;10.004;2023-04-01T00:22:39;8.38;;;4.82;;
45065;SDS011;30830;53.704;10.004;2023-04-01T00:25:05;7.18;;;4.63;;
45065;SDS011;30830;53.704;10.004;2023-04-01T00:27:32;7.70;;;5.25;;
45065;SDS011;30830;53.704;10.004;2023-04-01T00:29:58;7.93;;;4.35;;
45065;SDS011;30830;53.704;10.004;2023-04-01T00:32:23;8.27;;;4.90;;
45065;SDS011;30830;53.704;10.004;2023-04-01T00:34:50;8.95;;;5.03;;
45065;SDS011;30830;53.704;10.004;2023-04-01T00:37:16;6.65;;;4.45;;
45065;SDS011;30830;53.704;10.004;2023-04-01T00:39:42;8.60;;;5.68;;
45065;SDS011;30830;53.704;10.004;2023-04-01T00:42:09;7.53;;;4.20;;
45065;SDS011;30830;53.704;10.004;2023-04-01T00:44:36;8.27;;;4.68;;
45065;SDS011;30830;53.704;10.004;2023-04-01T00:47:03;4.82;;;3.78;;
45065;SDS011;30830;53.704;10.004;2023-04-01T00:49:30;5.75;;;4.30;;
45065;SDS011;30830;53.704;10.004;2023-04-01T00:52:02;9.20;;;5.00;;
45065;SDS011;30830;53.704;10.004;2023-04-01T00:54:30;6.90;;;4.20;;
45065;SDS011;30830;53.704;10.004;2023-04-01T00:59:30;8.68;;;5.00;;
45065;SDS011;30830;53.704;10.004;2023-04-01T01:02:00;6.93;;;4.60;;
45065;SDS011;30830;53.704;10.004;2023-04-01T01:04:31;6.53;;;4.35;;
45065;SDS011;30830;53.704;10.004;2023-04-01T01:07:01;8.80;;;4.50;;
45065;SDS011;30830;53.704;10.004;2023-04-01T01:12:34;6.55;;;5.05;;
45065;SDS011;30830;53.704;10.004;2023-04-01T01:15:09;6.75;;;4.63;;
45065;SDS011;30830;53.704;10.004;2023-04-01T01:26:39;8.65;;;5.03;;
45065;SDS011;30830;53.704;10.004;2023-04-01T01:37:29;8.05;;;5.55;;
45065;SDS011;30830;53.704;10.004;2023-04-01T01:39:57;11.75;;;5.25;;
45065;SDS011;30830;53.704;10.004;2023-04-01T01:42:26;7.15;;;5.20;;
45065;SDS011;30830;53.704;10.004;2023-04-01T01:44:56;7.93;;;4.78;;
45065;SDS011;30830;53.704;10.004;2023-04-01T01:47:24;7.32;;;5.15;;
45065;SDS011;30830;53.704;10.004;2023-04-01T01:49:50;9.85;;;5.28;;
45065;SDS011;30830;53.704;10.004;2023-04-01T01:52:17;8.90;;;5.70;;
45065;SDS011;30830;53.704;10.004;2023-04-01T01:54:53;10.13;;;5.25;;
45065;SDS011;30830;53.704;10.004;2023-04-01T01:57:26;7.63;;;5.72;;
45065;SDS011;30830;53.704;10.004;2023-04-01T01:59:58;9.15;;;5.78;;
45065;SDS011;30830;53.704;10.004;2023-04-01T02:02:40;8.57;;;5.72;;
45065;SDS011;30830;53.704;10.004;2023-04-01T02:05:11;8.75;;;5.53;;
45065;SDS011;30830;53.704;10.004;2023-04-01T02:07:42;8.70;;;5.95;;
45065;SDS011;30830;53.704;10.004;2023-04-01T02:10:12;9.02;;;5.40;;
45065;SDS011;30830;53.704;10.004;2023-04-01T02:12:38;8.05;;;5.80;;
45065;SDS011;30830;53.704;10.004;2023-04-01T02:15:06;7.18;;;5.47;;
45065;SDS011;30830;53.704;10.004;2023-04-01T02:17:37;7.35;;;5.78;;
45065;SDS011;30830;53.704;10.004;2023-04-01T02:20:12;10.98;;;5.88;;
45065;SDS011;30830;53.704;10.004;2023-04-01T02:22:41;8.18;;;5.78;;
45065;SDS011;30830;53.704;10.004;2023-04-01T02:25:20;9.30;;;5.57;;
45065;SDS011;30830;53.704;10.004;2023-04-01T02:27:52;8.10;;;5.78;;
45065;SDS011;30830;53.704;10.004;2023-04-01T02:30:23;6.82;;;5.47;;
45065;SDS011;30830;53.704;10.004;2023-04-01T02:32:50;11.23;;;5.78;;
45065;SDS011;30830;53.704;10.004;2023-04-01T02:35:17;10.35;;;6.43;;
45065;SDS011;30830;53.704;10.004;2023-04-01T02:37:43;10.35;;;6.10;;
45065;SDS011;30830;53.704;10.004;2023-04-01T02:40:12;9.68;;;6.00;;
45065;SDS011;30830;53.704;10.004;2023-04-01T02:42:39;8.20;;;5.90;;
45065;SDS011;30830;53.704;10.004;2023-04-01T02:45:05;8.88;;;6.25;;
45065;SDS011;30830;53.704;10.004;2023-04-01T02:47:31;9.55;;;5.63;;
45065;SDS011;30830;53.704;10.004;2023-04-01T02:49:57;9.40;;;6.20;;
45065;SDS011;30830;53.704;10.004;2023-04-01T02:52:27;8.73;;;5.28;;
45065;SDS011;30830;53.704;10.004;2023-04-01T02:54:53;7.05;;;5.90;;
45065;SDS011;30830;53.704;10.004;2023-04-01T02:57:19;7.63;;;5.93;;
45065;SDS011;30830;53.704;10.004;2023-04-01T02:59:45;7.90;;;5.90;;
45065;SDS011;30830;53.704;10.004;2023-04-01T03:02:10;8.40;;;6.30;;
45065;SDS011;30830;53.704;10.004;2023-04-01T03:04:36;8.48;;;6.03;;
45065;SDS011;30830;53.704;10.004;2023-04-01T03:07:01;9.40;;;6.07;;
45065;SDS011;30830;53.704;10.004;2023-04-01T03:09:27;10.38;;;5.95;;
45065;SDS011;30830;53.704;10.004;2023-04-01T03:11:53;8.80;;;6.40;;
45065;SDS011;30830;53.704;10.004;2023-04-01T03:14:19;8.70;;;5.95;;
45065;SDS011;30830;53.704;10.004;2023-04-01T03:16:45;11.30;;;6.10;;
45065;SDS011;30830;53.704;10.004;2023-04-01T03:19:10;9.63;;;7.25;;
45065;SDS011;30830;53.704;10.004;2023-04-01T03:21:36;9.38;;;6.22;;
45065;SDS011;30830;53.704;10.004;2023-04-01T03:24:02;8.82;;;6.53;;
45065;SDS011;30830;53.704;10.004;2023-04-01T03:26:28;8.32;;;6.45;;
45065;SDS011;30830;53.704;10.004;2023-04-01T03:28:53;11.02;;;6.85;;
45065;SDS011;30830;53.704;10.004;2023-04-01T03:31:20;10.20;;;6.97;;
45065;SDS011;30830;53.704;10.004;2023-04-01T03:33:46;8.75;;;6.82;;
45065;SDS011;30830;53.704;10.004;2023-04-01T03:36:12;10.05;;;6.82;;
45065;SDS011;30830;53.704;10.004;2023-04-01T03:38:39;10.00;;;6.75;;
45065;SDS011;30830;53.704;10.004;2023-04-01T03:41:05;9.65;;;6.22;;
45065;SDS011;30830;53.704;10.004;2023-04-01T03:43:31;9.38;;;7.10;;
45065;SDS011;30830;53.704;10.004;2023-04-01T03:45:57;8.10;;;6.47;;
45065;SDS011;30830;53.704;10.004;2023-04-01T03:48:23;9.25;;;6.65;;
45065;SDS011;30830;53.704;10.004;2023-04-01T03:50:50;8.05;;;6.57;;
45065;SDS011;30830;53.704;10.004;2023-04-01T03:53:16;11.02;;;6.78;;
45065;SDS011;30830;53.704;10.004;2023-04-01T03:55:41;12.70;;;6.38;;
45065;SDS011;30830;53.704;10.004;2023-04-01T03:58:07;12.35;;;7.50;;
45065;SDS011;30830;53.704;10.004;2023-04-01T04:00:33;9.25;;;7.43;;
45065;SDS011;30830;53.704;10.004;2023-04-01T04:02:59;9.90;;;6.90;;
45065;SDS011;30830;53.704;10.004;2023-04-01T04:05:25;6.35;;;4.10;;
45065;SDS011;30830;53.704;10.004;2023-04-01T04:07:51;4.22;;;3.78;;
45065;SDS011;30830;53.704;10.004;2023-04-01T04:10:18;3.53;;;3.20;;
45065;SDS011;30830;53.704;10.004;2023-04-01T04:12:44;3.75;;;3.15;;
45065;SDS011;30830;53.704;10.004;2023-04-01T04:15:09;4.15;;;3.15;;
45065;SDS011;30830;53.704;10.004;2023-04-01T04:17:35;2.85;;;2.55;;
45065;SDS011;30830;53.704;10.004;2023-04-01T04:20:01;4.30;;;2.95;;
45065;SDS011;30830;53.704;10.004;2023-04-01T04:22:27;4.30;;;2.78;;
45065;SDS011;30830;53.704;10.004;2023-04-01T04:24:52;3.30;;;2.17;;
45065;SDS011;30830;53.704;10.004;2023-04-01T04:27:18;3.10;;;2.78;;
45065;SDS011;30830;53.704;10.004;2023-04-01T04:29:44;2.45;;;2.22;;
45065;SDS011;30830;53.704;10.004;2023-04-01T04:32:10;2.53;;;2.20;;
45065;SDS011;30830;53.704;10.004;2023-04-01T04:34:35;2.85;;;2.38;;
45065;SDS011;30830;53.704;10.004;2023-04-01T04:37:01;3.13;;;2.83;;
45065;SDS011;30830;53.704;10.004;2023-04-01T04:39:27;3.45;;;2.45;;
45065;SDS011;30830;53.704;10.004;2023-04-01T04:41:52;2.60;;;2.40;;
45065;SDS011;30830;53.704;10.004;2023-04-01T04:44:18;2.65;;;2.40;;
45065;SDS011;30830;53.704;10.004;2023-04-01T04:46:43;2.30;;;2.08;;
45065;SDS011;30830;53.704;10.004;2023-04-01T04:49:09;3.38;;;2.40;;
45065;SDS011;30830;53.704;10.004;2023-04-01T04:51:35;3.10;;;2.42;;
45065;SDS011;30830;53.704;10.004;2023-04-01T04:54:01;2.45;;;2.25;;
45065;SDS011;30830;53.704;10.004;2023-04-01T04:56:28;3.13;;;2.83;;
45065;SDS011;30830;53.704;10.004;2023-04-01T04:58:54;2.97;;;2.72;;
45065;SDS011;30830;53.704;10.004;2023-04-01T05:01:20;2.45;;;2.20;;
45065;SDS011;30830;53.704;10.004;2023-04-01T05:03:45;2.30;;;2.05;;
45065;SDS011;30830;53.704;10.004;2023-04-01T05:06:12;2.40;;;1.77;;
45065;SDS011;30830;53.704;10.004;2023-04-01T05:08:39;2.15;;;1.95;;
45065;SDS011;30830;53.704;10.004;2023-04-01T05:11:06;1.92;;;1.73;;
45065;SDS011;30830;53.704;10.004;2023-04-01T05:13:34;2.70;;;1.90;;
45065;SDS011;30830;53.704;10.004;2023-04-01T05:16:01;1.63;;;1.52;;
45065;SDS011;30830;53.704;10.004;2023-04-01T05:18:26;2.22;;;1.67;;
45065;SDS011;30830;53.704;10.004;2023-04-01T05:20:53;2.92;;;2.15;;
45065;SDS011;30830;53.704;10.004;2023-04-01T05:23:19;1.83;;;1.40;;
45065;SDS011;30830;53.704;10.004;2023-04-01T05:25:47;1.30;;;1.20;;
45065;SDS011;30830;53.704;10.004;2023-04-01T05:28:13;1.88;;;1.10;;
45065;SDS011;30830;53.704;10.004;2023-04-01T05:30:40;1.42;;;1.33;;
45065;SDS011;30830;53.704;10.004;2023-04-01T05:33:07;1.30;;;0.90;;
45065;SDS011;30830;53.704;10.004;2023-04-01T05:35:33;1.13;;;0.98;;
45065;SDS011;30830;53.704;10.004;2023-04-01T05:37:59;1.27;;;1.17;;
45065;SDS011;30830;53.704;10.004;2023-04-01T05:40:25;1.98;;;1.27;;
45065;SDS011;30830;53.704;10.004;2023-04-01T05:42:50;1.27;;;1.17;;
45065;SDS011;30830;53.704;10.004;2023-04-01T05:45:16;1.17;;;1.02;;
45065;SDS011;30830;53.704;10.004;2023-04-01T05:47:41;1.27;;;1.13;;
45065;SDS011;30830;53.704;10.004;2023-04-01T05:50:08;1.50;;;1.02;;
45065;SDS011;30830;53.704;10.004;2023-04-01T05:52:35;1.90;;;1.60;;
45065;SDS011;30830;53.704;10.004;2023-04-01T05:55:01;2.72;;;1.48;;
45065;SDS011;30830;53.704;10.004;2023-04-01T05:57:27;2.03;;;1.42;;
45065;SDS011;30830;53.704;10.004;2023-04-01T05:59:52;1.17;;;1.08;;
45065;SDS011;30830;53.704;10.004;2023-04-01T06:02:18;1.30;;;0.98;;
45065;SDS011;30830;53.704;10.004;2023-04-01T06:04:44;0.80;;;0.80;;
45065;SDS011;30830;53.704;10.004;2023-04-01T06:07:11;1.45;;;0.80;;
45065;SDS011;30830;53.704;10.004;2023-04-01T06:09:37;1.40;;;0.85;;
45065;SDS011;30830;53.704;10.004;2023-04-01T06:18:02;1.02;;;0.90;;
45065;SDS011;30830;53.704;10.004;2023-04-01T06:26:38;1.90;;;0.90;;
45065;SDS011;30830;53.704;10.004;2023-04-01T06:32:01;1.50;;;0.95;;
45065;SDS011;30830;53.704;10.004;2023-04-01T06:42:54;1.15;;;0.90;;
45065;SDS011;30830;53.704;10.004;2023-04-01T06:54:28;1.05;;;0.90;;
45065;SDS011;30830;53.704;10.004;2023-04-01T06:56:59;0.90;;;0.70;;
45065;SDS011;30830;53.704;10.004;2023-04-01T06:59:31;0.98;;;0.73;;
45065;SDS011;30830;53.704;10.004;2023-04-01T07:04:38;0.77;;;0.65;;
45065;SDS011;30830;53.704;10.004;2023-04-01T07:07:27;0.88;;;0.88;;
45065;SDS011;30830;53.704;10.004;2023-04-01T07:10:04;0.70;;;0.70;;
45065;SDS011;30830;53.704;10.004;2023-04-01T07:12:46;2.92;;;1.05;;
45065;SDS011;30830;53.704;10.004;2023-04-01T07:15:25;1.35;;;1.05;;
45065;SDS011;30830;53.704;10.004;2023-04-01T07:18:11;1.10;;;0.98;;
45065;SDS011;30830;53.704;10.004;2023-04-01T07:20:44;1.10;;;1.00;;
45065;SDS011;30830;53.704;10.004;2023-04-01T07:23:15;1.00;;;0.80;;
45065;SDS011;30830;53.704;10.004;2023-04-01T07:25:47;1.85;;;1.15;;
45065;SDS011;30830;53.704;10.004;2023-04-01T07:28:18;1.08;;;1.02;;
45065;SDS011;30830;53.704;10.004;2023-04-01T07:34:49;2.78;;;1.35;;
45065;SDS011;30830;53.704;10.004;2023-04-01T07:39:30;1.13;;;0.98;;
45065;SDS011;30830;53.704;10.004;2023-04-01T07:42:28;2.28;;;1.15;;
45065;SDS011;30830;53.704;10.004;2023-04-01T07:45:22;1.42;;;1.33;;
45065;SDS011;30830;53.704;10.004;2023-04-01T07:56:42;1.25;;;1.05;;
45065;SDS011;30830;53.704;10.004;2023-04-01T07:59:31;1.85;;;1.20;;
45065;SDS011;30830;53.704;10.004;2023-04-01T08:10:47;0.65;;;0.60;;
45065;SDS011;30830;53.704;10.004;2023-04-01T08:13:53;1.98;;;0.70;;
45065;SDS011;30830;53.704;10.004;2023-04-01T08:16:27;0.95;;;0.85;;
45065;SDS011;30830;53.704;10.004;2023-04-01T08:22:26;1.10;;;1.00;;
45065;SDS011;30830;53.704;10.004;2023-04-01T08:24:54;1.85;;;0.82;;
45065;SDS011;30830;53.704;10.004;2023-04-01T08:27:26;1.55;;;1.10;;
45065;SDS011;30830;53.704;10.004;2023-04-01T08:32:41;1.30;;;1.20;;
45065;SDS011;30830;53.704;10.004;2023-04-01T08:35:14;1.30;;;1.20;;
45065;SDS011;30830;53.704;10.004;2023-04-01T08:37:43;2.97;;;1.15;;
45065;SDS011;30830;53.704;10.004;2023-04-01T08:52:17;1.58;;;0.70;;
45065;SDS011;30830;53.704;10.004;2023-04-01T08:54:42;1.27;;;0.80;;
45065;SDS011;30830;53.704;10.004;2023-04-01T09:00:04;0.65;;;0.65;;
45065;SDS011;30830;53.704;10.004;2023-04-01T09:07:51;1.80;;;1.00;;
45065;SDS011;30830;53.704;10.004;2023-04-01T09:16:24;0.95;;;0.82;;
45065;SDS011;30830;53.704;10.004;2023-04-01T09:19:05;1.92;;;1.15;;
45065;SDS011;30830;53.704;10.004;2023-04-01T09:24:40;1.55;;;1.10;;
45065;SDS011;30830;53.704;10.004;2023-04-01T09:38:29;1.85;;;1.20;;
45065;SDS011;30830;53.704;10.004;2023-04-01T09:41:16;1.15;;;1.05;;
45065;SDS011;30830;53.704;10.004;2023-04-01T09:46:50;0.80;;;0.80;;
45065;SDS011;30830;53.704;10.004;2023-04-01T09:49:28;1.10;;;0.90;;
45065;SDS011;30830;53.704;10.004;2023-04-01T09:52:10;1.35;;;0.68;;
45065;SDS011;30830;53.704;10.004;2023-04-01T10:20:18;1.42;;;1.00;;
45065;SDS011;30830;53.704;10.004;2023-04-01T10:22:50;1.00;;;0.90;;
45065;SDS011;30830;53.704;10.004;2023-04-01T10:38:29;0.80;;;0.80;;
45065;SDS011;30830;53.704;10.004;2023-04-01T10:44:03;1.20;;;1.10;;
45065;SDS011;30830;53.704;10.004;2023-04-01T10:52:07;1.10;;;1.00;;
45065;SDS011;30830;53.704;10.004;2023-04-01T10:57:40;1.45;;;1.35;;
45065;SDS011;30830;53.704;10.004;2023-04-01T11:03:11;1.42;;;1.33;;
45065;SDS011;30830;53.704;10.004;2023-04-01T11:06:07;1.50;;;1.20;;
45065;SDS011;30830;53.704;10.004;2023-04-01T11:28:21;2.40;;;2.20;;
45065;SDS011;30830;53.704;10.004;2023-04-01T11:33:43;4.65;;;2.53;;
45065;SDS011;30830;53.704;10.004;2023-04-01T11:39:09;3.88;;;2.20;;
45065;SDS011;30830;53.704;10.004;2023-04-01T11:41:51;2.53;;;1.83;;
45065;SDS011;30830;53.704;10.004;2023-04-01T11:44:28;3.92;;;2.50;;
45065;SDS011;30830;53.704;10.004;2023-04-01T11:55:25;6.47;;;2.83;;
45065;SDS011;30830;53.704;10.004;2023-04-01T12:00:57;4.40;;;2.95;;
45065;SDS011;30830;53.704;10.004;2023-04-01T12:11:33;5.30;;;4.15;;
45065;SDS011;30830;53.704;10.004;2023-04-01T12:19:44;4.10;;;3.35;;
45065;SDS011;30830;53.704;10.004;2023-04-01T12:28:08;4.50;;;3.78;;
45065;SDS011;30830;53.704;10.004;2023-04-01T12:44:53;3.35;;;2.92;;
45065;SDS011;30830;53.704;10.004;2023-04-01T12:53:10;7.10;;;4.07;;
45065;SDS011;30830;53.704;10.004;2023-04-01T12:55:58;7.95;;;4.32;;
45065;SDS011;30830;53.704;10.004;2023-04-01T12:58:38;4.50;;;3.88;;
45065;SDS011;30830;53.704;10.004;2023-04-01T13:01:15;4.28;;;3.00;;
45065;SDS011;30830;53.704;10.004;2023-04-01T13:06:33;4.03;;;2.85;;
45065;SDS011;30830;53.704;10.004;2023-04-01T13:19:58;6.30;;;3.17;;
45065;SDS011;30830;53.704;10.004;2023-04-01T13:28:23;7.80;;;3.20;;
45065;SDS011;30830;53.704;10.004;2023-04-01T13:31:01;5.57;;;2.53;;
45065;SDS011;30830;53.704;10.004;2023-04-01T13:42:01;4.97;;;3.53;;
45065;SDS011;30830;53.704;10.004;2023-04-01T13:44:56;5.32;;;3.50;;
45065;SDS011;30830;53.704;10.004;2023-04-01T13:47:41;5.07;;;3.25;;
45065;SDS011;30830;53.704;10.004;2023-04-01T13:55:52;5.85;;;3.22;;
45065;SDS011;30830;53.704;10.004;2023-04-01T14:01:35;8.73;;;4.05;;
45065;SDS011;30830;53.704;10.004;2023-04-01T14:04:27;5.30;;;3.40;;
45065;SDS011;30830;53.704;10.004;2023-04-01T14:18:21;5.03;;;3.83;;
45065;SDS011;30830;53.704;10.004;2023-04-01T14:21:46;6.50;;;4.03;;
45065;SDS011;30830;53.704;10.004;2023-04-01T14:24:41;9.60;;;5.00;;
45065;SDS011;30830;53.704;10.004;2023-04-01T14:27:33;5.60;;;4.00;;
45065;SDS011;30830;53.704;10.004;2023-04-01T14:35:27;8.02;;;4.60;;
45065;SDS011;30830;53.704;10.004;2023-04-01T14:49:17;8.77;;;3.70;;
45065;SDS011;30830;53.704;10.004;2023-04-01T14:51:55;9.43;;;4.43;;
45065;SDS011;30830;53.704;10.004;2023-04-01T14:54:35;5.68;;;3.50;;
45065;SDS011;30830;53.704;10.004;2023-04-01T14:59:40;7.70;;;3.78;;
45065;SDS011;30830;53.704;10.004;2023-04-01T15:15:58;5.38;;;3.83;;
45065;SDS011;30830;53.704;10.004;2023-04-01T15:24:15;8.02;;;4.90;;
45065;SDS011;30830;53.704;10.004;2023-04-01T15:27:08;7.30;;;3.90;;
45065;SDS011;30830;53.704;10.004;2023-04-01T15:35:50;6.47;;;4.63;;
45065;SDS011;30830;53.704;10.004;2023-04-01T15:38:49;9.32;;;5.00;;
45065;SDS011;30830;53.704;10.004;2023-04-01T15:52:49;8.20;;;4.82;;
45065;SDS011;30830;53.704;10.004;2023-04-01T16:06:01;8.63;;;4.28;;
45065;SDS011;30830;53.704;10.004;2023-04-01T16:16:58;10.88;;;4.80;;
45065;SDS011;30830;53.704;10.004;2023-04-01T16:19:49;7.78;;;4.95;;
45065;SDS011;30830;53.704;10.004;2023-04-01T16:22:22;8.68;;;3.88;;
45065;SDS011;30830;53.704;10.004;2023-04-01T16:27:46;7.50;;;5.15;;
45065;SDS011;30830;53.704;10.004;2023-04-01T16:35:58;11.52;;;5.32;;
45065;SDS011;30830;53.704;10.004;2023-04-01T16:44:31;10.88;;;4.63;;
45065;SDS011;30830;53.704;10.004;2023-04-01T16:47:50;8.57;;;4.88;;
45065;SDS011;30830;53.704;10.004;2023-04-01T16:50:22;6.68;;;3.95;;
45065;SDS011;30830;53.704;10.004;2023-04-01T16:53:14;8.80;;;4.67;;
45065;SDS011;30830;53.704;10.004;2023-04-01T17:01:43;6.03;;;3.67;;
45065;SDS011;30830;53.704;10.004;2023-04-01T17:12:38;6.40;;;3.35;;
45065;SDS011;30830;53.704;10.004;2023-04-01T17:20:48;4.30;;;2.78;;
45065;SDS011;30830;53.704;10.004;2023-04-01T17:23:27;4.82;;;3.10;;
45065;SDS011;30830;53.704;10.004;2023-04-01T17:28:46;7.15;;;3.00;;
45065;SDS011;30830;53.704;10.004;2023-04-01T17:42:53;3.67;;;2.90;;
45065;SDS011;30830;53.704;10.004;2023-04-01T17:47:59;3.38;;;2.50;;
45065;SDS011;30830;53.704;10.004;2023-04-01T17:50:45;5.05;;;2.50;;
45065;SDS011;30830;53.704;10.004;2023-04-01T17:53:35;3.97;;;2.63;;
45065;SDS011;30830;53.704;10.004;2023-04-01T18:10:08;6.03;;;2.80;;
45065;SDS011;30830;53.704;10.004;2023-04-01T18:18:30;9.20;;;3.17;;
45065;SDS011;30830;53.704;10.004;2023-04-01T18:23:56;5.05;;;2.83;;
45065;SDS011;30830;53.704;10.004;2023-04-01T18:26:30;4.00;;;2.50;;
45065;SDS011;30830;53.704;10.004;2023-04-01T18:39:53;2.88;;;2.28;;
45065;SDS011;30830;53.704;10.004;2023-04-01T18:45:35;4.75;;;2.63;;
45065;SDS011;30830;53.704;10.004;2023-04-01T18:48:16;5.25;;;2.58;;
45065;SDS011;30830;53.704;10.004;2023-04-01T18:51:23;4.85;;;3.03;;
45065;SDS011;30830;53.704;10.004;2023-04-01T18:53:53;5.03;;;3.10;;
45065;SDS011;30830;53.704;10.004;2023-04-01T18:56:27;4.05;;;2.88;;
45065;SDS011;30830;53.704;10.004;2023-04-01T18:59:05;10.18;;;2.50;;
45065;SDS011;30830;53.704;10.004;2023-04-01T19:01:41;6.82;;;2.88;;
45065;SDS011;30830;53.704;10.004;2023-04-01T19:09:52;5.57;;;3.00;;
45065;SDS011;30830;53.704;10.004;2023-04-01T19:15:12;5.65;;;2.85;;
45065;SDS011;30830;53.704;10.004;2023-04-01T19:20:29;8.13;;;3.15;;
45065;SDS011;30830;53.704;10.004;2023-04-01T19:25:46;6.40;;;2.65;;
45065;SDS011;30830;53.704;10.004;2023-04-01T19:28:22;3.30;;;2.40;;
45065;SDS011;30830;53.704;10.004;2023-04-01T19:36:11;5.95;;;2.42;;
45065;SDS011;30830;53.704;10.004;2023-04-01T19:41:51;3.33;;;2.38;;
45065;SDS011;30830;53.704;10.004;2023-04-01T19:47:09;4.05;;;2.78;;
45065;SDS011;30830;53.704;10.004;2023-04-01T19:49:58;3.97;;;2.25;;
45065;SDS011;30830;53.704;10.004;2023-04-01T19:52:45;4.95;;;2.63;;
45065;SDS011;30830;53.704;10.004;2023-04-01T20:03:07;3.53;;;2.22;;
45065;SDS011;30830;53.704;10.004;2023-04-01T20:08:54;5.70;;;2.40;;
45065;SDS011;30830;53.704;10.004;2023-04-01T20:11:42;4.65;;;2.30;;
45065;SDS011;30830;53.704;10.004;2023-04-01T20:17:22;3.97;;;2.13;;
45065;SDS011;30830;53.704;10.004;2023-04-01T20:19:59;3.63;;;2.15;;
45065;SDS011;30830;53.704;10.004;2023-04-01T20:22:37;3.58;;;2.05;;
45065;SDS011;30830;53.704;10.004;2023-04-01T20:25:39;3.50;;;2.03;;
45065;SDS011;30830;53.704;10.004;2023-04-01T20:41:44;2.92;;;2.03;;
45065;SDS011;30830;53.704;10.004;2023-04-01T20:44:29;6.18;;;2.50;;
45065;SDS011;30830;53.704;10.004;2023-04-01T20:47:18;5.05;;;2.17;;
45065;SDS011;30830;53.704;10.004;2023-04-01T20:53:09;4.22;;;2.42;;
45065;SDS011;30830;53.704;10.004;2023-04-01T21:09:48;7.43;;;2.85;;
45065;SDS011;30830;53.704;10.004;2023-04-01T21:15:35;5.38;;;2.33;;
45065;SDS011;30830;53.704;10.004;2023-04-01T21:23:56;4.30;;;2.00;;
45065;SDS011;30830;53.704;10.004;2023-04-01T21:34:49;3.42;;;1.75;;
45065;SDS011;30830;53.704;10.004;2023-04-01T21:37:32;3.03;;;1.77;;
45065;SDS011;30830;53.704;10.004;2023-04-01T21:40:19;4.72;;;1.52;;
45065;SDS011;30830;53.704;10.004;2023-04-01T21:42:58;5.57;;;1.40;;
45065;SDS011;30830;53.704;10.004;2023-04-01T21:48:52;3.60;;;1.58;;
45065;SDS011;30830;53.704;10.004;2023-04-01T21:54:16;2.67;;;1.40;;
45065;SDS011;30830;53.704;10.004;2023-04-01T22:02:39;5.10;;;1.65;;
45065;SDS011;30830;53.704;10.004;2023-04-01T22:05:10;3.30;;;1.23;;
45065;SDS011;30830;53.704;10.004;2023-04-01T22:13:32;2.40;;;1.10;;
45065;SDS011;30830;53.704;10.004;2023-04-01T22:16:36;1.67;;;1.05;;
45065;SDS011;30830;53.704;10.004;2023-04-01T22:19:27;4.05;;;1.30;;
45065;SDS011;30830;53.704;10.004;2023-04-01T22:32:41;2.00;;;1.50;;
45065;SDS011;30830;53.704;10.004;2023-04-01T22:35:24;4.13;;;1.50;;
45065;SDS011;30830;53.704;10.004;2023-04-01T22:38:07;3.42;;;1.27;;
45065;SDS011;30830;53.704;10.004;2023-04-01T22:40:46;5.82;;;1.10;;
45065;SDS011;30830;53.704;10.004;2023-04-01T22:43:15;3.20;;;0.93;;
45065;SDS011;30830;53.704;10.004;2023-04-01T22:45:51;5.90;;;1.83;;
45065;SDS011;30830;53.704;10.004;2023-04-01T22:53:57;4.03;;;0.95;;
45065;SDS011;30830;53.704;10.004;2023-04-01T22:59:52;5.65;;;1.25;;
45065;SDS011;30830;53.704;10.004;2023-04-01T23:02:33;5.72;;;1.30;;
45065;SDS011;30830;53.704;10.004;2023-04-01T23:05:04;4.32;;;1.30;;
45065;SDS011;30830;53.704;10.004;2023-04-01T23:10:22;1.67;;;1.00;;
45065;SDS011;30830;53.704;10.004;2023-04-01T23:12:53;2.85;;;1.42;;
45065;SDS011;30830;53.704;10.004;2023-04-01T23:15:22;1.80;;;1.00;;
45065;SDS011;30830;53.704;10.004;2023-04-01T23:20:39;3.95;;;1.35;;
45065;SDS011;30830;53.704;10.004;2023-04-01T23:23:33;2.25;;;1.20;;
45065;SDS011;30830;53.704;10.004;2023-04-01T23:31:01;1.63;;;0.80;;
45065;SDS011;30830;53.704;10.004;2023-04-01T23:33:30;2.45;;;0.90;;
45065;SDS011;30830;53.704;10.004;2023-04-01T23:36:00;1.40;;;0.82;;
45065;SDS011;30830;53.704;10.004;2023-04-01T23:38:39;2.67;;;0.95;;
45065;SDS011;30830;53.704;10.004;2023-04-01T23:41:06;1.52;;;0.70;;
45065;SDS011;30830;53.704;10.004;2023-04-01T23:43:56;6.38;;;1.25;;
45065;SDS011;30830;53.704;10.004;2023-04-01T23:46:37;8.82;;;1.10;;
45065;SDS011;30830;53.704;10.004;2023-04-01T23:49:04;2.25;;;0.77;;
45065;SDS011;30830;53.704;10.004;2023-04-01T23:51:40;6.35;;;1.35;;
45065;SDS011;30830;53.704;10.004;2023-04-01T23:54:18;4.28;;;1.13;;
45065;SDS011;30830;53.704;10.004;2023-04-01T23:56:54;4.78;;;1.00;;
